Time;durP1;ratioP1;P1;durP2;ratioP2;P2;SDS_P1;SDS_P2;PMS_P1;PMS_P2;Temp;Humidity;BMP_temperature;BMP_pressure;BME280_temperature;BME280_humidity;BME280_pressure;Samples;Min_cycle;Max_cycle;Signal;HPM_P1;HPM_P2
2022/01/15 00:02:08;;;;;;;77.63;34.00;;;5.60;81.10;;;;;;5058618;28;20426;-87
2022/01/15 00:04:34;;;;;;;72.85;30.67;;;5.60;80.60;;;;;;5057960;28;20200;-85
2022/01/15 00:06:59;;;;;;;96.83;35.17;;;5.40;80.70;;;;;;5058351;28;20208;-85
2022/01/15 00:09:25;;;;;;;79.40;33.43;;;5.60;80.70;;;;;;5058718;28;20181;-86
2022/01/15 00:11:53;;;;;;;79.53;33.67;;;5.60;80.40;;;;;;5076877;28;20204;-85
2022/01/15 00:14:30;;;;;;;74.47;34.00;;;5.70;80.40;;;;;;5058489;28;20456;-85
2022/01/15 00:17:03;;;;;;;89.43;33.47;;;5.80;80.20;;;;;;5058802;28;20254;-85
2022/01/15 00:19:47;;;;;;;76.97;32.45;;;5.70;79.90;;;;;;5058556;28;20541;-85
2022/01/15 00:22:18;;;;;;;91.47;36.95;;;5.90;80.10;;;;;;5058857;28;20176;-85
2022/01/15 00:24:46;;;;;;;86.57;34.47;;;5.80;79.70;;;;;;5076708;28;20165;-85
2022/01/15 00:27:12;;;;;;;78.90;33.05;;;5.70;79.60;;;;;;5059118;28;20200;-85
2022/01/15 00:29:38;;;;;;;90.10;36.70;;;5.70;79.80;;;;;;5058687;28;20187;-85
2022/01/15 00:32:06;;;;;;;91.57;36.20;;;5.60;80.00;;;;;;5059345;28;20212;-85
2022/01/15 00:34:33;;;;;;;83.45;32.80;;;5.90;80.20;;;;;;5059591;28;20169;-85
2022/01/15 00:36:59;;;;;;;94.38;32.75;;;5.80;79.90;;;;;;5060160;28;20196;-85
2022/01/15 00:39:26;;;;;;;84.10;30.80;;;5.80;79.90;;;;;;5060813;28;20172;-85
2022/01/15 00:41:52;;;;;;;97.13;37.05;;;5.90;79.80;;;;;;5060827;28;20188;-86
2022/01/15 00:44:20;;;;;;;89.53;33.90;;;5.90;79.80;;;;;;5062115;28;20176;-85
2022/01/15 00:46:46;;;;;;;88.07;33.97;;;5.70;79.60;;;;;;5062775;28;20446;-85
2022/01/15 00:49:12;;;;;;;80.63;31.10;;;5.60;79.90;;;;;;5085954;28;20240;-86
2022/01/15 00:51:38;;;;;;;76.67;29.17;;;5.70;80.10;;;;;;5069454;28;20215;-85
2022/01/15 00:54:04;;;;;;;84.03;33.00;;;5.60;80.00;;;;;;5060343;28;20423;-85
2022/01/15 00:56:30;;;;;;;99.43;34.55;;;5.50;80.40;;;;;;5061395;28;20200;-84
2022/01/15 00:58:56;;;;;;;87.53;33.10;;;5.40;80.70;;;;;;5062867;28;20187;-85
2022/01/15 01:01:22;;;;;;;96.20;32.83;;;5.50;80.70;;;;;;5063872;28;20199;-85
2022/01/15 01:03:49;;;;;;;87.20;33.20;;;5.60;80.50;;;;;;5070269;28;20726;-85
2022/01/15 01:06:15;;;;;;;108.45;35.05;;;5.40;80.40;;;;;;5068613;28;20196;-85
2022/01/15 01:08:41;;;;;;;87.25;30.92;;;5.10;81.00;;;;;;5071321;28;20188;-85
2022/01/15 01:11:22;;;;;;;93.07;36.27;;;5.30;81.70;;;;;;5060797;28;20233;-85
2022/01/15 01:24:25;;;;;;;88.40;31.88;;;5.40;81.20;;;;;;5067746;28;20219;-85
2022/01/15 01:29:40;;;;;;;108.20;36.22;;;5.20;81.50;;;;;;5080349;28;20173;-85
2022/01/15 01:35:09;;;;;;;94.03;33.97;;;5.20;81.70;;;;;;5053251;28;20195;-86
2022/01/15 01:37:43;;;;;;;105.05;34.58;;;5.10;81.70;;;;;;5060257;28;20201;-85
2022/01/15 01:40:20;;;;;;;86.20;34.15;;;5.00;81.70;;;;;;5060449;28;20169;-85
2022/01/15 01:43:06;;;;;;;114.10;35.30;;;5.20;81.90;;;;;;5061346;28;20173;-86
2022/01/15 01:45:32;;;;;;;93.28;32.97;;;5.20;81.70;;;;;;5060459;28;20180;-84
2022/01/15 01:47:58;;;;;;;102.90;33.97;;;5.20;81.70;;;;;;5060556;28;20201;-85
2022/01/15 01:50:26;;;;;;;96.40;35.77;;;5.10;81.90;;;;;;5057488;28;20204;-85
2022/01/15 01:52:55;;;;;;;110.05;36.92;;;5.00;81.70;;;;;;5079252;28;20176;-85
2022/01/15 01:55:23;;;;;;;91.50;34.47;;;4.70;81.90;;;;;;5062048;28;20227;-85
2022/01/15 01:57:50;;;;;;;98.10;33.75;;;4.60;82.20;;;;;;5062303;28;20193;-85
2022/01/15 02:00:19;;;;;;;107.30;35.08;;;4.40;82.60;;;;;;5062808;28;20244;-85
2022/01/15 02:02:46;;;;;;;86.18;31.27;;;4.50;83.20;;;;;;5080817;28;20191;-85
2022/01/15 02:05:12;;;;;;;97.63;32.63;;;4.60;83.10;;;;;;5062836;28;20271;-85
2022/01/15 02:07:40;;;;;;;83.55;34.30;;;4.60;83.20;;;;;;5065825;28;20204;-85
2022/01/15 02:10:09;;;;;;;95.40;34.88;;;4.60;83.10;;;;;;5064050;28;20180;-85
2022/01/15 02:12:35;;;;;;;80.93;30.92;;;4.70;83.30;;;;;;5079240;28;20173;-85
2022/01/15 02:15:21;;;;;;;86.55;34.42;;;4.80;83.20;;;;;;5061716;28;20284;-84
2022/01/15 02:17:48;;;;;;;90.38;35.10;;;4.90;83.10;;;;;;5061395;28;20718;-85
2022/01/15 02:20:35;;;;;;;93.68;36.25;;;5.10;82.70;;;;;;5078777;28;20283;-85
2022/01/15 02:25:54;;;;;;;100.20;35.15;;;5.40;81.70;;;;;;5058709;28;20193;-85
2022/01/15 02:28:29;;;;;;;81.78;34.67;;;5.60;81.40;;;;;;5057053;28;20196;-85
2022/01/15 02:30:56;;;;;;;85.75;32.78;;;5.50;80.90;;;;;;5060986;28;20214;-85
2022/01/15 02:33:22;;;;;;;75.45;31.88;;;5.50;80.90;;;;;;5061879;28;20211;-85
2022/01/15 02:36:05;;;;;;;85.40;32.40;;;5.30;80.60;;;;;;5080716;28;20180;-85
2022/01/15 02:38:31;;;;;;;79.43;34.03;;;5.00;81.10;;;;;;5062250;28;20176;-85
2022/01/15 02:40:57;;;;;;;86.33;34.73;;;5.30;81.70;;;;;;5064925;28;20553;-85
2022/01/15 02:43:32;;;;;;;92.50;34.47;;;5.40;81.60;;;;;;5067428;28;20176;-85
2022/01/15 02:46:18;;;;;;;88.93;33.05;;;5.40;81.30;;;;;;5063257;28;20448;-85
2022/01/15 02:48:44;;;;;;;72.53;34.28;;;5.10;81.20;;;;;;5063710;28;20173;-85
2022/01/15 02:51:11;;;;;;;90.55;34.60;;;4.90;82.10;;;;;;5064072;28;20227;-84
2022/01/15 02:53:37;;;;;;;90.97;33.67;;;5.00;82.60;;;;;;5079690;28;20168;-84
2022/01/15 02:56:03;;;;;;;94.63;36.93;;;5.30;82.60;;;;;;5062190;28;20194;-85
2022/01/15 02:58:29;;;;;;;101.72;39.22;;;5.30;82.20;;;;;;5064433;28;20176;-85
2022/01/15 03:00:54;;;;;;;89.07;34.67;;;5.40;82.10;;;;;;5071486;28;20203;-85
2022/01/15 03:03:20;;;;;;;82.43;32.43;;;5.40;81.60;;;;;;5076629;28;20188;-85
2022/01/15 03:05:46;;;;;;;95.28;35.22;;;5.10;81.40;;;;;;5062694;28;20431;-85
2022/01/15 03:08:12;;;;;;;117.87;37.33;;;4.80;81.90;;;;;;5061108;28;20728;-85
2022/01/15 03:10:38;;;;;;;86.47;32.97;;;4.90;82.40;;;;;;5060472;28;20462;-85
2022/01/15 03:13:11;;;;;;;87.63;34.13;;;5.00;82.50;;;;;;5060256;28;20203;-85
2022/01/15 03:15:38;;;;;;;85.15;36.25;;;5.10;82.40;;;;;;5088308;28;20383;-85
2022/01/15 03:18:04;;;;;;;85.30;32.90;;;5.10;82.20;;;;;;5074292;28;20172;-84
2022/01/15 03:20:31;;;;;;;106.68;38.33;;;4.90;82.30;;;;;;5059974;28;20184;-84
2022/01/15 03:22:56;;;;;;;93.13;33.42;;;5.10;82.40;;;;;;5059710;28;20181;-85
2022/01/15 03:25:22;;;;;;;87.67;33.50;;;4.90;82.30;;;;;;5059686;28;20188;-84
2022/01/15 03:27:48;;;;;;;84.87;35.20;;;4.80;82.80;;;;;;5060289;28;20810;-85
2022/01/15 03:30:14;;;;;;;97.37;37.57;;;4.90;83.10;;;;;;5059382;28;20185;-86
2022/01/15 03:32:44;;;;;;;89.45;35.63;;;5.10;83.20;;;;;;5076153;28;20175;-85
2022/01/15 03:35:15;;;;;;;91.82;34.17;;;5.10;83.00;;;;;;5058868;28;20177;-85
2022/01/15 03:37:42;;;;;;;89.63;34.85;;;5.20;82.50;;;;;;5058676;28;20296;-85
2022/01/15 03:40:10;;;;;;;82.13;32.35;;;5.10;82.30;;;;;;5058811;28;20180;-85
2022/01/15 03:42:35;;;;;;;89.38;32.42;;;5.10;82.50;;;;;;5058384;28;20621;-85
2022/01/15 03:45:02;;;;;;;83.67;33.80;;;5.10;82.90;;;;;;5058430;28;20216;-85
2022/01/15 03:47:28;;;;;;;95.57;36.80;;;5.10;82.70;;;;;;5058906;28;20570;-85
2022/01/15 03:49:53;;;;;;;83.57;34.83;;;5.30;82.40;;;;;;5058877;28;20183;-84
2022/01/15 03:52:19;;;;;;;79.00;31.50;;;5.00;82.00;;;;;;5059001;28;20204;-84
2022/01/15 03:54:45;;;;;;;80.17;32.70;;;4.90;82.40;;;;;;5058477;28;20629;-85
2022/01/15 03:57:11;;;;;;;105.50;37.33;;;4.90;82.50;;;;;;5058928;28;20199;-85
2022/01/15 03:59:37;;;;;;;85.60;33.40;;;4.90;82.60;;;;;;5058643;28;20176;-84
2022/01/15 04:02:03;;;;;;;73.30;31.23;;;5.10;82.70;;;;;;5059071;28;20468;-85
2022/01/15 04:04:29;;;;;;;80.07;33.58;;;5.00;82.20;;;;;;5058122;28;20264;-84
2022/01/15 04:06:54;;;;;;;94.57;34.20;;;5.00;82.20;;;;;;5058607;28;20235;-84
2022/01/15 04:09:24;;;;;;;85.70;32.03;;;4.90;82.20;;;;;;5060346;28;20425;-85
2022/01/15 04:11:50;;;;;;;76.57;31.25;;;4.80;82.30;;;;;;5058978;28;20196;-85
2022/01/15 04:14:16;;;;;;;92.50;35.03;;;4.80;82.30;;;;;;5057451;28;20183;-84
2022/01/15 04:16:42;;;;;;;78.97;32.33;;;4.90;82.40;;;;;;5058563;28;20554;-85
2022/01/15 04:19:08;;;;;;;81.33;36.00;;;4.90;82.50;;;;;;5060930;28;20192;-85
2022/01/15 04:21:35;;;;;;;99.63;37.05;;;4.90;82.70;;;;;;5060519;28;21041;-85
2022/01/15 04:24:02;;;;;;;95.03;36.00;;;5.10;82.40;;;;;;5058147;28;20216;-84
2022/01/15 04:26:28;;;;;;;98.55;38.05;;;5.00;82.10;;;;;;5058450;28;20196;-84
2022/01/15 04:28:55;;;;;;;110.87;37.27;;;5.00;81.90;;;;;;5058487;28;20208;-84
2022/01/15 04:31:21;;;;;;;87.85;36.75;;;5.00;82.00;;;;;;5058640;28;20559;-84
2022/01/15 04:33:47;;;;;;;93.10;33.85;;;4.90;81.70;;;;;;5076454;28;20236;-84
2022/01/15 04:36:13;;;;;;;98.37;32.77;;;4.60;82.10;;;;;;5058884;28;20192;-84
2022/01/15 04:38:42;;;;;;;81.97;33.60;;;4.70;82.50;;;;;;5060057;28;20188;-84
2022/01/15 04:41:09;;;;;;;92.15;35.13;;;4.80;82.40;;;;;;5060190;28;20203;-84
2022/01/15 04:43:35;;;;;;;86.60;30.73;;;4.80;82.20;;;;;;5061639;28;20173;-85
2022/01/15 04:46:01;;;;;;;94.45;35.38;;;4.80;82.30;;;;;;5068214;28;20204;-84
2022/01/15 04:48:27;;;;;;;98.97;36.90;;;4.50;82.20;;;;;;5065058;28;20180;-84
2022/01/15 04:50:53;;;;;;;87.80;34.67;;;4.70;82.90;;;;;;5063078;28;20450;-84
2022/01/15 04:53:19;;;;;;;94.13;33.72;;;4.80;82.90;;;;;;5063386;28;20248;-85
2022/01/15 04:55:45;;;;;;;86.03;33.42;;;4.80;82.60;;;;;;5064501;28;20222;-85
2022/01/15 04:58:11;;;;;;;88.93;35.57;;;4.60;82.50;;;;;;5077341;28;20189;-84
2022/01/15 05:00:37;;;;;;;88.00;34.97;;;4.70;82.70;;;;;;5070652;28;20187;-84
2022/01/15 05:03:03;;;;;;;86.35;34.33;;;4.90;82.80;;;;;;5080718;28;20175;-84
2022/01/15 05:05:29;;;;;;;90.10;32.00;;;5.00;82.50;;;;;;5081849;28;20196;-84
2022/01/15 05:07:55;;;;;;;93.95;31.40;;;4.90;82.10;;;;;;5065925;28;20218;-85
2022/01/15 05:10:24;;;;;;;86.65;32.90;;;4.70;82.00;;;;;;5091101;28;20244;-85
2022/01/15 05:12:51;;;;;;;79.40;32.65;;;4.50;82.50;;;;;;5067969;28;20652;-84
2022/01/15 05:15:18;;;;;;;84.85;31.70;;;4.50;82.90;;;;;;5059324;28;20226;-84
2022/01/15 05:17:46;;;;;;;80.80;30.88;;;4.40;83.00;;;;;;5063691;28;20196;-85
2022/01/15 05:20:16;;;;;;;75.65;31.75;;;4.50;83.40;;;;;;5060394;28;20696;-84
2022/01/15 05:22:42;;;;;;;76.80;30.65;;;4.50;83.40;;;;;;5057752;28;20179;-84
2022/01/15 05:25:09;;;;;;;87.85;35.78;;;4.60;83.30;;;;;;5057082;28;20168;-84
2022/01/15 05:27:36;;;;;;;86.50;32.83;;;4.50;83.20;;;;;;5059771;28;20219;-84
2022/01/15 05:30:04;;;;;;;77.15;29.80;;;4.40;83.20;;;;;;5079314;28;20168;-83
2022/01/15 05:32:29;;;;;;;76.35;31.98;;;4.30;83.70;;;;;;5061441;28;20208;-84
2022/01/15 05:34:57;;;;;;;76.00;31.03;;;4.30;83.80;;;;;;5061050;28;20183;-84
2022/01/15 05:37:23;;;;;;;86.57;31.27;;;4.40;84.00;;;;;;5062104;28;20260;-84
2022/01/15 05:39:49;;;;;;;70.13;30.73;;;4.40;83.90;;;;;;5062867;28;20179;-84
2022/01/15 05:42:15;;;;;;;74.97;31.20;;;4.50;84.10;;;;;;5061589;28;20213;-84
2022/01/15 05:44:40;;;;;;;88.33;34.77;;;4.50;83.80;;;;;;5061045;28;20422;-84
2022/01/15 05:47:08;;;;;;;81.63;30.57;;;4.60;83.80;;;;;;5061669;28;20253;-84
2022/01/15 05:49:34;;;;;;;85.80;31.40;;;4.70;83.60;;;;;;5063945;28;20585;-84
2022/01/15 05:52:05;;;;;;;77.03;31.48;;;4.60;83.30;;;;;;5080383;28;20193;-84
2022/01/15 05:54:31;;;;;;;84.50;32.20;;;4.30;83.50;;;;;;5060597;28;20171;-84
2022/01/15 05:56:57;;;;;;;73.80;29.55;;;4.10;84.00;;;;;;5079122;28;20189;-84
2022/01/15 05:59:23;;;;;;;77.15;28.75;;;4.20;84.20;;;;;;5062101;28;20184;-83
2022/01/15 06:01:49;;;;;;;76.80;30.10;;;4.20;84.20;;;;;;5061724;28;20279;-83
2022/01/15 06:04:14;;;;;;;81.93;31.93;;;4.20;84.40;;;;;;5060243;28;20910;-84
2022/01/15 06:06:40;;;;;;;87.10;30.10;;;4.40;84.50;;;;;;5060696;28;20454;-84
2022/01/15 06:09:06;;;;;;;77.80;34.10;;;4.60;84.40;;;;;;5061768;28;20173;-84
2022/01/15 06:11:34;;;;;;;89.60;31.40;;;4.60;83.90;;;;;;5062053;28;20461;-84
2022/01/15 06:14:01;;;;;;;82.78;29.90;;;4.20;83.70;;;;;;5060829;28;20177;-84
2022/01/15 06:16:27;;;;;;;66.70;27.80;;;4.20;84.10;;;;;;5060846;28;20223;-84
2022/01/15 06:18:53;;;;;;;70.20;28.90;;;4.10;84.20;;;;;;5060645;28;20181;-84
2022/01/15 06:21:19;;;;;;;93.55;34.78;;;4.20;84.10;;;;;;5054875;28;20518;-84
2022/01/15 06:23:45;;;;;;;73.38;29.65;;;4.10;84.40;;;;;;5057577;28;20299;-84
2022/01/15 06:26:10;;;;;;;78.10;30.43;;;4.30;84.50;;;;;;5041104;28;20239;-85
2022/01/15 06:28:36;;;;;;;93.20;34.67;;;4.40;84.00;;;;;;5075281;28;20184;-83
2022/01/15 06:31:02;;;;;;;94.60;34.13;;;4.30;83.90;;;;;;5061517;28;20458;-84
2022/01/15 06:33:27;;;;;;;88.70;31.87;;;4.40;83.90;;;;;;5065359;28;20172;-84
2022/01/15 06:35:53;;;;;;;81.80;32.47;;;4.30;83.80;;;;;;5061700;28;20418;-84
2022/01/15 06:38:19;;;;;;;95.97;32.67;;;4.60;84.00;;;;;;5062521;28;20245;-84
2022/01/15 06:40:44;;;;;;;75.00;30.37;;;4.60;83.90;;;;;;5080611;28;20173;-84
2022/01/15 06:43:10;;;;;;;89.70;31.80;;;4.80;83.80;;;;;;5066055;28;20185;-84
2022/01/15 06:45:36;;;;;;;88.13;33.77;;;4.50;83.10;;;;;;5088136;28;20250;-85
2022/01/15 06:48:02;;;;;;;93.77;32.70;;;4.20;83.20;;;;;;5062091;28;20454;-85
2022/01/15 06:50:29;;;;;;;84.70;31.23;;;4.10;83.70;;;;;;5086885;28;20180;-86
2022/01/15 06:52:55;;;;;;;82.47;31.13;;;4.10;84.30;;;;;;5069984;28;20208;-85
2022/01/15 06:55:21;;;;;;;101.38;31.38;;;4.10;84.50;;;;;;5061796;28;20240;-85
2022/01/15 06:57:47;;;;;;;94.15;33.22;;;4.30;84.60;;;;;;5087472;28;20208;-84
2022/01/15 07:00:14;;;;;;;107.07;33.70;;;4.30;84.50;;;;;;5085545;28;20172;-85
2022/01/15 07:02:40;;;;;;;92.25;37.03;;;4.50;84.50;;;;;;5062824;28;20174;-85
2022/01/15 07:05:07;;;;;;;112.25;34.95;;;4.40;84.10;;;;;;5078857;28;20203;-86
2022/01/15 07:07:35;;;;;;;114.55;38.05;;;4.40;84.30;;;;;;5063870;28;20223;-85
2022/01/15 07:10:00;;;;;;;103.68;36.65;;;4.30;84.20;;;;;;5062629;28;20184;-85
2022/01/15 07:12:26;;;;;;;89.33;30.23;;;4.20;84.40;;;;;;5060605;28;20684;-85
2022/01/15 07:14:52;;;;;;;95.60;32.17;;;4.30;84.70;;;;;;5060508;28;20414;-85
2022/01/15 07:17:18;;;;;;;111.07;33.77;;;4.50;84.70;;;;;;5078616;28;20429;-86
2022/01/15 07:19:43;;;;;;;100.33;35.67;;;4.40;84.70;;;;;;5081005;28;20173;-85
2022/01/15 07:22:09;;;;;;;102.90;34.70;;;4.40;84.50;;;;;;5062458;28;20506;-85
2022/01/15 07:24:38;;;;;;;107.40;32.30;;;4.20;84.20;;;;;;5060581;28;20180;-84
2022/01/15 07:27:04;;;;;;;97.90;33.33;;;4.20;84.40;;;;;;5061081;28;20439;-85
2022/01/15 07:29:31;;;;;;;84.73;32.30;;;4.20;84.60;;;;;;5061583;28;20691;-85
2022/01/15 07:31:57;;;;;;;107.40;32.10;;;4.30;84.80;;;;;;5079689;28;20458;-84
2022/01/15 07:34:23;;;;;;;96.82;31.23;;;4.50;84.80;;;;;;5060786;28;20172;-85
2022/01/15 07:36:54;;;;;;;91.05;31.38;;;4.40;84.60;;;;;;5062668;28;20307;-83
2022/01/15 07:39:20;;;;;;;106.68;31.52;;;4.50;84.50;;;;;;5082680;28;20772;-84
2022/01/15 07:41:46;;;;;;;117.20;34.47;;;4.60;84.60;;;;;;5062280;28;20176;-85
2022/01/15 07:44:12;;;;;;;96.35;33.63;;;4.50;84.10;;;;;;5059620;28;20446;-84
2022/01/15 07:46:38;;;;;;;95.33;31.73;;;4.50;84.10;;;;;;5059366;28;20200;-84
2022/01/15 07:49:05;;;;;;;106.57;32.20;;;4.30;84.10;;;;;;5057750;28;20974;-86
2022/01/15 07:51:31;;;;;;;95.55;30.25;;;4.30;84.40;;;;;;5057913;28;20473;-86
2022/01/15 07:53:57;;;;;;;90.40;30.53;;;4.30;85.00;;;;;;5058461;28;20192;-86
2022/01/15 07:56:22;;;;;;;95.57;31.70;;;4.40;84.80;;;;;;5058686;28;20196;-87
2022/01/15 07:58:48;;;;;;;97.43;34.97;;;4.40;85.00;;;;;;5058752;28;21100;-86
2022/01/15 08:01:14;;;;;;;100.50;31.57;;;4.30;85.00;;;;;;5076957;28;20212;-87
2022/01/15 08:03:40;;;;;;;104.80;30.47;;;4.40;85.20;;;;;;5057519;28;20834;-86
2022/01/15 08:06:08;;;;;;;103.07;30.85;;;4.40;85.10;;;;;;5059491;28;20200;-86
2022/01/15 08:08:34;;;;;;;89.28;32.08;;;4.50;85.20;;;;;;5061252;28;20204;-86
2022/01/15 08:11:03;;;;;;;98.77;31.60;;;4.50;84.80;;;;;;5058955;28;20204;-87
2022/01/15 08:13:31;;;;;;;100.10;30.73;;;4.50;84.50;;;;;;5058547;28;20195;-87
2022/01/15 08:15:57;;;;;;;98.57;29.77;;;4.20;83.90;;;;;;5058875;28;20234;-88
2022/01/15 08:18:24;;;;;;;92.13;34.05;;;4.00;84.60;;;;;;5058444;28;20176;-88
2022/01/15 08:20:50;;;;;;;93.07;32.92;;;3.80;85.30;;;;;;5056218;28;20192;-88
2022/01/15 08:23:16;;;;;;;92.45;33.20;;;3.80;85.80;;;;;;5038435;28;20173;-88
2022/01/15 08:25:42;;;;;;;87.70;27.67;;;3.90;86.00;;;;;;5038399;28;20192;-88
2022/01/15 08:28:08;;;;;;;89.37;27.53;;;3.80;86.00;;;;;;5043098;28;20184;-87
2022/01/15 08:30:34;;;;;;;96.47;31.70;;;3.80;86.00;;;;;;5058943;28;20464;-87
2022/01/15 08:33:03;;;;;;;95.75;29.20;;;3.70;86.40;;;;;;5049375;28;20433;-88
2022/01/15 08:35:33;;;;;;;97.65;33.40;;;3.80;86.50;;;;;;5060939;28;20275;-87
2022/01/15 08:38:03;;;;;;;90.28;31.40;;;3.80;86.50;;;;;;5064188;28;20197;-88
2022/01/15 08:40:29;;;;;;;99.32;33.80;;;3.80;86.50;;;;;;5065034;28;20165;-89
2022/01/15 08:42:55;;;;;;;97.35;31.45;;;3.90;86.60;;;;;;5070899;28;20173;-88
2022/01/15 08:45:21;;;;;;;89.97;29.15;;;3.90;86.50;;;;;;5077194;28;20192;-88
2022/01/15 08:47:47;;;;;;;112.97;32.50;;;3.70;86.50;;;;;;5064674;28;20236;-89
2022/01/15 08:50:17;;;;;;;96.32;29.95;;;3.70;87.00;;;;;;5042665;28;20169;-89
2022/01/15 08:52:43;;;;;;;91.93;34.40;;;3.80;87.00;;;;;;5066873;28;20177;-88
2022/01/15 08:55:09;;;;;;;106.78;30.98;;;3.90;86.90;;;;;;5061181;28;20179;-89
2022/01/15 08:57:36;;;;;;;107.80;33.85;;;3.90;86.40;;;;;;5059869;28;20209;-88
2022/01/15 09:00:17;;;;;;;108.10;32.63;;;3.90;86.60;;;;;;5045404;28;20211;-89
2022/01/15 09:02:43;;;;;;;95.30;30.92;;;3.80;86.50;;;;;;5038171;28;20180;-88
2022/01/15 09:05:09;;;;;;;100.80;30.13;;;4.10;86.80;;;;;;5038558;28;20197;-88
2022/01/15 09:07:35;;;;;;;125.00;32.70;;;4.30;86.80;;;;;;5056561;28;20982;-89
2022/01/15 09:10:02;;;;;;;99.13;29.90;;;4.10;86.00;;;;;;5076025;28;20173;-88
2022/01/15 09:12:32;;;;;;;96.80;31.83;;;4.10;86.00;;;;;;5054689;28;20197;-87
2022/01/15 09:14:59;;;;;;;86.47;27.92;;;4.00;85.90;;;;;;5037740;28;20180;-87
2022/01/15 09:17:28;;;;;;;89.20;26.55;;;4.00;86.20;;;;;;5048476;28;20206;-87
2022/01/15 09:19:54;;;;;;;98.40;29.63;;;4.00;86.20;;;;;;5043719;28;20231;-88
2022/01/15 09:22:21;;;;;;;96.97;28.58;;;4.00;86.30;;;;;;5043294;28;20184;-87
2022/01/15 09:24:47;;;;;;;99.10;29.52;;;4.00;86.50;;;;;;5054878;28;20586;-88
2022/01/15 09:30:12;;;;;;;112.13;29.73;;;4.20;86.50;;;;;;5013493;28;20465;-87
2022/01/15 09:32:42;;;;;;;96.68;29.48;;;4.40;86.40;;;;;;5054728;28;20208;-88
2022/01/15 09:35:09;;;;;;;89.97;31.92;;;4.60;86.10;;;;;;5039106;28;20173;-86
2022/01/15 09:37:35;;;;;;;94.05;32.55;;;4.70;85.70;;;;;;5037036;28;20677;-86
2022/01/15 09:40:01;;;;;;;119.10;34.07;;;4.80;85.30;;;;;;5054921;28;20184;-87
2022/01/15 09:42:36;;;;;;;97.45;30.50;;;4.50;84.30;;;;;;5037093;28;20418;-87
2022/01/15 09:45:03;;;;;;;77.05;28.38;;;4.50;84.60;;;;;;5039951;28;20575;-86
2022/01/15 09:47:31;;;;;;;95.65;30.10;;;4.60;84.70;;;;;;5052671;28;20232;-87
2022/01/15 09:49:59;;;;;;;119.65;32.47;;;4.70;84.80;;;;;;5055950;28;20222;-87
2022/01/15 09:52:24;;;;;;;97.03;30.60;;;4.40;84.60;;;;;;5055828;28;20361;-87
2022/01/15 09:54:51;;;;;;;82.77;26.20;;;4.60;84.90;;;;;;5056100;28;20191;-87
2022/01/15 09:57:17;;;;;;;88.13;26.42;;;4.60;84.90;;;;;;5055740;28;20197;-86
2022/01/15 09:59:54;;;;;;;89.25;28.92;;;4.70;84.70;;;;;;5059788;28;20188;-85
2022/01/15 10:02:20;;;;;;;104.38;26.58;;;4.60;83.70;;;;;;5055090;28;20177;-86
2022/01/15 10:04:46;;;;;;;91.80;29.63;;;4.50;83.50;;;;;;5039116;28;20638;-87
2022/01/15 10:07:16;;;;;;;105.03;30.90;;;4.40;83.70;;;;;;5059716;28;20462;-88
2022/01/15 10:09:45;;;;;;;69.80;29.70;;;4.30;84.10;;;;;;5060781;28;20181;-87
2022/01/15 10:12:22;;;;;;;93.10;29.20;;;4.30;84.20;;;;;;5062115;28;20205;-86
2022/01/15 10:14:47;;;;;;;79.65;28.35;;;4.20;84.40;;;;;;5066566;28;20231;-87
2022/01/15 10:17:26;;;;;;;113.70;30.07;;;4.30;84.70;;;;;;5067263;28;20228;-87
2022/01/15 10:19:53;;;;;;;96.32;28.45;;;4.40;84.40;;;;;;5065128;28;20196;-86
2022/01/15 10:22:22;;;;;;;80.55;26.60;;;4.40;84.30;;;;;;5068390;28;20206;-87
2022/01/15 10:25:05;;;;;;;99.18;27.85;;;4.40;84.80;;;;;;5053285;28;20177;-85
2022/01/15 10:27:36;;;;;;;84.95;24.35;;;4.40;84.70;;;;;;5062242;28;20266;-86
2022/01/15 10:30:07;;;;;;;88.60;26.63;;;4.70;84.20;;;;;;5064305;28;20203;-87
2022/01/15 10:32:37;;;;;;;87.60;27.10;;;4.80;83.80;;;;;;5070053;28;20216;-87
2022/01/15 10:35:15;;;;;;;77.95;25.95;;;4.60;82.90;;;;;;5071347;28;20194;-88
2022/01/15 10:38:08;;;;;;;82.10;25.52;;;4.60;82.90;;;;;;5077933;28;20203;-87
2022/01/15 10:40:44;;;;;;;66.82;24.08;;;4.80;83.00;;;;;;5072866;28;20176;-87
2022/01/15 10:43:12;;;;;;;68.45;23.95;;;5.00;82.70;;;;;;5071217;28;20176;-88
2022/01/15 10:45:53;;;;;;;70.65;24.85;;;5.10;82.20;;;;;;5072273;28;20176;-87
2022/01/15 10:48:26;;;;;;;71.70;23.27;;;5.30;81.50;;;;;;5078531;28;20179;-90
2022/01/15 10:51:14;;;;;;;78.90;25.23;;;5.00;80.80;;;;;;5082409;28;20268;-88
2022/01/15 10:53:44;;;;;;;55.60;22.60;;;5.10;81.10;;;;;;5075827;28;20181;-86
2022/01/15 10:56:13;;;;;;;77.72;23.50;;;4.80;80.90;;;;;;5054528;28;20189;-87
2022/01/15 10:58:42;;;;;;;69.30;23.10;;;5.00;81.10;;;;;;5059686;28;20173;-88
2022/01/15 11:01:12;;;;;;;73.63;23.98;;;5.00;80.90;;;;;;5065049;28;20177;-87
2022/01/15 11:03:41;;;;;;;71.80;23.58;;;4.90;80.50;;;;;;5065850;28;20185;-86
2022/01/15 11:06:07;;;;;;;74.38;23.90;;;5.00;80.50;;;;;;5045507;28;20204;-87
2022/01/15 11:08:38;;;;;;;61.13;22.33;;;5.10;80.40;;;;;;5061776;28;20196;-88
2022/01/15 11:11:06;;;;;;;65.45;24.23;;;5.30;80.80;;;;;;5065529;28;20288;-87
2022/01/15 11:13:39;;;;;;;72.85;25.17;;;5.50;81.10;;;;;;5049327;28;20257;-87
2022/01/15 11:16:12;;;;;;;58.88;24.05;;;5.60;80.70;;;;;;5039808;28;20236;-87
2022/01/15 11:18:40;;;;;;;70.43;23.00;;;5.50;81.00;;;;;;5040103;28;20213;-87
2022/01/15 11:21:12;;;;;;;61.75;24.15;;;5.60;81.00;;;;;;5048958;28;20169;-87
2022/01/15 11:23:42;;;;;;;67.32;23.27;;;5.70;80.00;;;;;;5084960;28;20228;-87
2022/01/15 11:26:36;;;;;;;73.35;25.00;;;6.00;79.90;;;;;;5062028;28;20196;-87
2022/01/15 11:29:04;;;;;;;72.80;23.27;;;6.00;78.70;;;;;;5058082;28;20180;-87
2022/01/15 11:31:35;;;;;;;74.38;25.50;;;5.60;77.60;;;;;;5059200;28;20594;-85
2022/01/15 11:34:03;;;;;;;78.40;24.60;;;5.30;78.30;;;;;;5041347;28;20251;-87
2022/01/15 11:36:34;;;;;;;77.35;26.42;;;5.40;79.50;;;;;;5058992;28;20200;-86
2022/01/15 11:39:06;;;;;;;65.43;26.00;;;5.50;79.80;;;;;;5060743;28;20180;-86
2022/01/15 11:41:32;;;;;;;60.80;22.90;;;5.50;79.50;;;;;;5040993;28;20272;-87
2022/01/15 11:43:59;;;;;;;70.43;22.80;;;5.80;79.50;;;;;;5057575;28;20197;-86
2022/01/15 11:46:27;;;;;;;74.45;25.92;;;6.10;79.80;;;;;;5066421;28;20246;-86
2022/01/15 11:49:28;;;;;;;70.90;26.23;;;6.20;79.10;;;;;;5060676;28;20275;-86
2022/01/15 11:52:04;;;;;;;76.43;26.10;;;6.20;77.80;;;;;;5059372;28;20204;-86
2022/01/15 11:54:30;;;;;;;70.40;24.52;;;5.70;77.30;;;;;;5058088;28;20255;-86
2022/01/15 11:57:28;;;;;;;70.07;27.20;;;5.40;77.90;;;;;;5059789;28;20730;-86
2022/01/15 12:00:04;;;;;;;96.57;29.95;;;5.50;79.00;;;;;;5059640;28;20399;-86
2022/01/15 12:02:55;;;;;;;80.75;29.35;;;5.30;79.00;;;;;;5059577;28;20238;-87
2022/01/15 12:05:23;;;;;;;81.68;26.65;;;5.50;79.80;;;;;;5060458;28;20184;-88
2022/01/15 12:08:01;;;;;;;84.05;25.38;;;5.60;79.70;;;;;;5065155;28;20216;-86
2022/01/15 12:10:42;;;;;;;78.85;24.58;;;5.20;79.40;;;;;;5063487;28;20172;-86
2022/01/15 12:13:15;;;;;;;81.28;25.15;;;5.50;80.10;;;;;;5063715;28;20251;-86
2022/01/15 12:15:41;;;;;;;72.85;23.80;;;5.70;79.70;;;;;;5069055;28;20244;-86
2022/01/15 12:18:23;;;;;;;69.93;24.35;;;5.40;79.10;;;;;;5069630;28;20176;-88
2022/01/15 12:20:55;;;;;;;63.78;23.35;;;5.50;79.50;;;;;;5061038;28;20295;-85
2022/01/15 12:23:21;;;;;;;87.30;25.08;;;5.70;79.90;;;;;;5047282;28;20260;-87
2022/01/15 12:25:49;;;;;;;68.22;22.73;;;5.80;79.20;;;;;;5063849;28;20183;-89
2022/01/15 12:28:16;;;;;;;54.35;21.08;;;5.80;78.20;;;;;;5059543;28;20676;-88
2022/01/15 12:30:50;;;;;;;67.68;23.25;;;5.70;78.60;;;;;;5076410;28;20517;-88
2022/01/15 12:33:17;;;;;;;56.92;21.30;;;5.90;79.20;;;;;;5093641;28;20185;-87
2022/01/15 12:35:47;;;;;;;71.75;25.15;;;6.00;78.80;;;;;;5060167;28;20174;-87
2022/01/15 12:38:28;;;;;;;52.83;21.58;;;6.00;78.40;;;;;;5042381;28;20199;-86
2022/01/15 12:41:06;;;;;;;54.95;24.50;;;6.20;78.00;;;;;;5041501;28;20183;-85
2022/01/15 12:43:40;;;;;;;54.67;21.83;;;5.70;78.10;;;;;;5067895;28;20192;-89
2022/01/15 12:46:12;;;;;;;66.63;22.15;;;5.90;78.60;;;;;;5054500;28;20193;-87
2022/01/15 12:48:41;;;;;;;61.58;23.23;;;6.10;78.40;;;;;;5063855;28;20189;-86
2022/01/15 12:51:09;;;;;;;66.72;23.05;;;6.30;78.10;;;;;;5058345;28;20224;-87
2022/01/15 12:53:37;;;;;;;73.97;23.85;;;6.30;77.40;;;;;;5043021;28;20177;-87
2022/01/15 12:56:09;;;;;;;61.38;22.52;;;6.20;77.10;;;;;;5057853;28;20211;-87
2022/01/15 12:58:35;;;;;;;73.15;26.35;;;6.10;77.30;;;;;;5060713;28;20556;-87
2022/01/15 13:01:02;;;;;;;67.57;24.25;;;6.10;78.20;;;;;;5058015;28;20212;-87
2022/01/15 13:03:29;;;;;;;60.67;22.55;;;6.20;77.30;;;;;;5058917;28;20212;-87
2022/01/15 13:06:01;;;;;;;58.03;21.98;;;6.40;76.90;;;;;;5057388;28;20207;-87